Time;durP1;ratioP1;P1;durP2;ratioP2;P2;SDS_P1;SDS_P2;PMS_P1;PMS_P2;Temp;Humidity;BMP_temperature;BMP_pressure;BME280_temperature;BME280_humidity;BME280_pressure;Samples;Min_cycle;Max_cycle;Signal;HPM_P1;HPM_P2
2022/07/04 04:19:00;;;;;;;53.72;32.75;;;;;;;23.23;70.01;101337.06;5088254;27;1361387;-85
2022/07/04 04:21:26;;;;;;;52.90;32.45;;;;;;;23.33;69.39;101335.25;5121851;28;20067;-88
2022/07/04 04:23:51;;;;;;;56.22;34.17;;;;;;;23.44;69.14;101328.97;5126217;28;20496;-88
2022/07/04 04:26:17;;;;;;;53.47;32.80;;;;;;;23.72;68.43;101349.25;5128719;27;20059;-87
2022/07/04 04:28:43;;;;;;;52.10;33.63;;;;;;;23.88;67.48;101319.56;5127596;28;20034;-89
2022/07/04 04:31:09;;;;;;;48.67;32.65;;;;;;;24.44;65.52;101344.25;5110589;28;20412;-89
2022/07/04 04:33:35;;;;;;;49.40;31.92;;;;;;;24.62;64.71;101334.56;5110024;28;20085;-89
2022/07/04 04:36:01;;;;;;;51.88;32.63;;;;;;;24.83;64.28;101343.03;5128467;28;20533;-93
2022/07/04 04:38:26;;;;;;;52.83;34.13;;;;;;;24.82;64.71;101341.38;5112397;28;20110;-93
2022/07/04 04:40:52;;;;;;;52.97;33.85;;;;;;;24.80;64.83;101348.63;5095759;28;20081;-89
2022/07/04 04:43:17;;;;;;;55.53;33.67;;;;;;;24.84;64.71;101330.63;5120367;28;20042;-90
2022/07/04 04:45:43;;;;;;;54.38;34.33;;;;;;;24.87;64.58;101341.75;5127033;28;20031;-89
2022/07/04 04:48:09;;;;;;;53.70;33.72;;;;;;;24.79;64.82;101324.97;5127694;27;20058;-92
2022/07/04 04:50:35;;;;;;;57.65;33.45;;;;;;;24.85;64.84;101333.13;5107983;28;20947;-90
2022/07/04 04:53:00;;;;;;;57.10;33.38;;;;;;;25.04;63.96;101334.00;5126050;28;20042;-89
2022/07/04 04:55:26;;;;;;;53.25;34.72;;;;;;;25.24;63.64;101335.50;5099466;28;20118;-93
2022/07/04 04:57:51;;;;;;;57.35;34.42;;;;;;;25.38;63.41;101342.06;5114874;28;20138;-92
2022/07/04 05:00:17;;;;;;;53.92;34.80;;;;;;;25.31;63.50;101320.66;5093290;28;20104;-89
2022/07/04 05:02:42;;;;;;;52.65;34.33;;;;;;;25.48;63.18;101344.63;5125006;28;20126;-89
2022/07/04 05:05:08;;;;;;;53.22;34.88;;;;;;;25.54;63.61;101341.34;5126483;28;20151;-88
2022/07/04 05:07:34;;;;;;;62.65;36.92;;;;;;;25.71;63.60;101333.38;5110204;28;20160;-85
2022/07/04 05:09:59;;;;;;;68.93;39.67;;;;;;;25.72;63.05;101347.47;5116398;28;20023;-87
2022/07/04 05:12:26;;;;;;;58.30;35.13;;;;;;;25.88;63.15;101344.09;5110077;28;20031;-90
2022/07/04 05:14:52;;;;;;;69.05;37.83;;;;;;;25.97;62.40;101338.69;5109827;28;20032;-91
2022/07/04 05:17:18;;;;;;;69.05;40.47;;;;;;;25.84;62.49;101332.94;5083245;28;20047;-89
2022/07/04 05:19:43;;;;;;;67.65;38.22;;;;;;;26.03;62.80;101343.31;5110902;28;20157;-92
2022/07/04 05:22:10;;;;;;;62.65;37.30;;;;;;;26.26;61.79;101332.19;5099487;28;20493;-94
2022/07/04 05:24:39;;;;;;;58.78;35.78;;;;;;;26.25;61.56;101335.78;5108982;28;20020;-89
2022/07/04 05:27:05;;;;;;;60.30;36.35;;;;;;;26.36;62.29;101338.19;5107301;28;20489;-90
2022/07/04 05:29:30;;;;;;;57.90;36.75;;;;;;;26.61;61.51;101351.53;5098614;28;20024;-89
2022/07/04 05:31:56;;;;;;;57.38;34.72;;;;;;;26.71;60.29;101344.25;5091795;28;20039;-91
2022/07/04 05:34:22;;;;;;;56.25;35.72;;;;;;;26.63;61.09;101353.03;5092403;28;20077;-89
2022/07/04 05:36:47;;;;;;;56.72;36.03;;;;;;;26.84;60.70;101345.47;5092434;28;20102;-92
2022/07/04 05:39:13;;;;;;;63.30;41.08;;;;;;;26.94;60.04;101345.31;5092365;28;20016;-94
2022/07/04 05:41:38;;;;;;;72.05;49.20;;;;;;;27.00;58.86;101349.94;5088387;28;20054;-94
2022/07/04 05:44:04;;;;;;;103.55;73.03;;;;;;;26.90;58.19;101338.66;5083531;28;20032;-88
2022/07/04 05:46:29;;;;;;;46.97;32.05;;;;;;;27.00;57.72;101349.13;5096524;28;20147;-95
2022/07/04 05:48:55;;;;;;;54.45;32.85;;;;;;;26.90;57.51;101330.69;5095370;28;20373;-87
2022/07/04 05:51:20;;;;;;;54.30;33.53;;;;;;;26.97;58.86;101344.97;5099989;28;20066;-89
2022/07/04 05:53:46;;;;;;;49.03;32.13;;;;;;;27.04;58.68;101348.69;5075652;28;20028;-90
2022/07/04 05:56:11;;;;;;;49.33;33.10;;;;;;;27.20;58.31;101352.31;5079682;28;20028;-88
2022/07/04 05:58:37;;;;;;;52.85;34.00;;;;;;;27.18;58.48;101347.19;5085899;28;20078;-87
2022/07/04 06:01:02;;;;;;;48.72;33.58;;;;;;;27.07;58.47;101329.75;5092185;28;20470;-91
2022/07/04 06:03:28;;;;;;;50.30;31.90;;;;;;;27.24;57.54;101348.34;5082577;28;20031;-95
2022/07/04 06:05:54;;;;;;;57.20;34.70;;;;;;;27.29;58.64;101330.06;5087705;28;20119;-93
2022/07/04 06:08:20;;;;;;;49.88;32.08;;;;;;;27.34;57.80;101327.75;5073600;28;20267;-89
2022/07/04 06:10:46;;;;;;;47.22;32.75;;;;;;;27.35;58.03;101337.38;5102842;28;20028;-91
2022/07/04 06:13:11;;;;;;;48.28;32.78;;;;;;;27.33;57.60;101336.69;5081010;28;20043;-92
2022/07/04 06:15:37;;;;;;;46.00;30.33;;;;;;;27.44;56.74;101333.72;5072530;28;20024;-86
2022/07/04 06:18:03;;;;;;;47.25;30.75;;;;;;;27.52;56.60;101338.16;5101853;28;20059;-92
2022/07/04 06:20:29;;;;;;;47.30;30.08;;;;;;;27.60;56.95;101344.31;5072729;28;20032;-87
2022/07/04 06:22:55;;;;;;;42.97;28.38;;;;;;;27.35;55.87;101319.63;5082007;28;21213;-88
2022/07/04 06:25:20;;;;;;;49.10;31.13;;;;;;;27.39;57.60;101336.03;5084336;28;20082;-84
2022/07/04 06:27:47;;;;;;;41.00;29.83;;;;;;;27.55;57.20;101335.19;5078529;28;20497;-87
2022/07/04 06:30:12;;;;;;;49.78;30.80;;;;;;;27.51;56.44;101334.69;5103968;28;20032;-92
2022/07/04 06:32:42;;;;;;;187.43;98.43;;;;;;;27.68;55.71;101343.50;5091154;28;20035;-91
2022/07/04 06:37:51;;;;;;;48.58;31.75;;;;;;;27.69;55.32;101332.69;5087162;28;20039;-94
2022/07/04 06:40:17;;;;;;;47.80;31.33;;;;;;;27.75;55.54;101327.72;5089575;28;20405;-89
2022/07/04 06:42:42;;;;;;;51.47;32.55;;;;;;;27.66;55.17;101324.25;5061230;28;20442;-89
2022/07/04 06:45:09;;;;;;;46.92;32.00;;;;;;;27.66;55.31;101322.41;5089554;28;20478;-86
2022/07/04 06:47:34;;;;;;;47.92;32.95;;;;;;;27.78;55.42;101324.72;5100658;28;20393;-95
2022/07/04 06:50:00;;;;;;;46.17;33.63;;;;;;;27.88;55.78;101320.84;5093183;28;20057;-92
2022/07/04 06:52:25;;;;;;;57.30;34.22;;;;;;;27.99;55.17;101320.47;5084288;28;20073;-88
2022/07/04 06:54:51;;;;;;;52.00;36.15;;;;;;;27.94;55.66;101319.34;5086260;28;20070;-89
2022/07/04 06:57:16;;;;;;;56.15;34.95;;;;;;;27.95;55.75;101300.56;5090260;28;20059;-91
2022/07/04 06:59:42;;;;;;;50.92;34.92;;;;;;;28.23;55.70;101324.06;5095516;28;20059;-83
2022/07/04 07:02:07;;;;;;;55.08;35.42;;;;;;;28.35;55.41;101319.19;5070290;28;20464;-90
2022/07/04 07:04:33;;;;;;;180.00;88.20;;;;;;;28.07;55.28;101308.97;5072552;28;20020;-86
2022/07/04 07:06:58;;;;;;;61.35;40.33;;;;;;;27.89;56.04;101316.38;5090008;28;20028;-84
2022/07/04 07:09:24;;;;;;;58.35;38.63;;;;;;;27.98;55.91;101310.03;5095529;28;20019;-87
2022/07/04 07:11:49;;;;;;;55.88;38.25;;;;;;;27.75;56.44;101309.94;5087398;28;20503;-84
2022/07/04 07:14:15;;;;;;;324.92;180.15;;;;;;;27.88;56.83;101296.91;5086900;28;20032;-88
2022/07/04 07:16:40;;;;;;;63.13;38.72;;;;;;;27.76;56.44;101289.50;5088921;28;20085;-86
2022/07/04 07:19:06;;;;;;;56.17;37.13;;;;;;;27.96;56.50;101296.91;5067033;28;20134;-83
2022/07/04 07:21:31;;;;;;;58.05;36.85;;;;;;;28.19;56.36;101299.63;5072704;28;20158;-90
2022/07/04 07:23:57;;;;;;;58.03;37.55;;;;;;;28.18;56.01;101303.28;5057945;28;20089;-92
2022/07/04 07:26:22;;;;;;;58.13;37.78;;;;;;;28.07;55.50;101294.84;5073971;28;20032;-92
2022/07/04 07:28:48;;;;;;;53.80;36.38;;;;;;;27.96;55.80;101291.56;5075948;28;20035;-92
2022/07/04 07:31:14;;;;;;;54.33;35.33;;;;;;;28.10;55.93;101295.34;5090322;28;20028;-89
2022/07/04 07:33:40;;;;;;;66.43;37.05;;;;;;;28.20;56.42;101297.78;5090153;28;20039;-90
2022/07/04 07:36:05;;;;;;;52.60;36.08;;;;;;;28.30;55.63;101303.75;5072480;28;20031;-84
2022/07/04 07:38:31;;;;;;;54.70;36.40;;;;;;;28.62;54.47;101299.25;5107807;28;20042;-86
2022/07/04 07:40:56;;;;;;;60.25;36.97;;;;;;;28.78;54.62;101291.97;5108710;28;20043;-88
2022/07/04 07:43:22;;;;;;;53.08;36.30;;;;;;;28.94;54.16;101293.72;5091663;28;20039;-87
2022/07/04 07:45:47;;;;;;;54.95;36.33;;;;;;;29.02;53.92;101290.97;5099406;28;20046;-88
2022/07/04 07:48:13;;;;;;;51.15;36.08;;;;;;;29.16;53.26;101289.34;5090851;28;20023;-87
2022/07/04 07:50:38;;;;;;;52.63;36.45;;;;;;;29.45;53.88;101287.75;5090207;28;20039;-89
2022/07/04 07:53:05;;;;;;;57.10;37.10;;;;;;;29.43;52.83;101291.44;5093489;28;20516;-89
2022/07/04 07:55:30;;;;;;;64.43;37.20;;;;;;;29.52;52.71;101281.53;5083239;28;20032;-84
2022/07/04 07:57:58;;;;;;;57.67;37.30;;;;;;;29.58;51.62;101285.28;5108257;28;20033;-87
2022/07/04 08:00:24;;;;;;;54.83;36.88;;;;;;;29.38;52.33;101283.13;5098491;28;20425;-90
2022/07/04 08:05:33;;;;;;;53.90;36.10;;;;;;;29.83;51.10;101276.00;5075113;28;20035;-87
2022/07/04 08:07:59;;;;;;;58.85;39.70;;;;;;;29.98;50.90;101283.97;5089733;28;20028;-91
2022/07/04 08:10:25;;;;;;;59.13;37.20;;;;;;;30.35;49.34;101299.03;5084353;28;20038;-87
2022/07/04 08:12:51;;;;;;;51.88;36.45;;;;;;;30.36;49.38;101284.66;5078254;28;20036;-88
2022/07/04 08:15:17;;;;;;;51.53;35.10;;;;;;;30.33;49.63;101293.06;5097761;28;20035;-86
2022/07/04 08:17:44;;;;;;;51.70;35.72;;;;;;;30.68;48.83;101294.09;5090953;28;20047;-85
2022/07/04 08:20:10;;;;;;;50.78;35.97;;;;;;;30.74;48.10;101279.13;5097755;28;20111;-90
2022/07/04 08:22:35;;;;;;;51.72;37.00;;;;;;;30.92;48.05;101284.84;5064260;28;20024;-87
2022/07/04 08:25:01;;;;;;;91.38;59.58;;;;;;;31.02;47.82;101271.97;5082162;28;20515;-88
2022/07/04 08:27:27;;;;;;;183.57;116.20;;;;;;;31.32;46.76;101282.50;5083098;28;20032;-89
2022/07/04 08:29:52;;;;;;;46.00;33.92;;;;;;;31.43;46.23;101281.97;5090107;28;20031;-87
2022/07/04 08:32:18;;;;;;;43.13;31.25;;;;;;;31.75;44.56;101285.00;5092720;28;20114;-94
2022/07/04 08:34:43;;;;;;;47.17;32.53;;;;;;;31.60;44.48;101293.19;5076557;28;20028;-88
2022/07/04 08:37:09;;;;;;;43.47;32.13;;;;;;;31.24;45.49;101291.50;5077572;28;20028;-87
2022/07/04 08:39:35;;;;;;;47.83;32.75;;;;;;;31.11;45.60;101281.50;5080716;28;20031;-90
2022/07/04 08:42:03;;;;;;;48.08;31.73;;;;;;;31.42;45.50;101291.00;5071455;28;20028;-90
2022/07/04 08:44:28;;;;;;;48.10;30.75;;;;;;;31.63;44.50;101277.56;5101331;28;20034;-86
2022/07/04 08:46:54;;;;;;;50.33;28.52;;;;;;;32.06;43.23;101282.75;5067028;22;20054;-91
2022/07/04 08:49:24;;;;;;;41.35;29.02;;;;;;;32.31;42.49;101271.50;4986704;28;20044;-89
2022/07/04 08:52:00;;;;;;;42.83;29.13;;;;;;;32.52;41.88;101274.84;5020400;28;20999;-86
2022/07/04 08:59:55;;;;;;;48.65;29.80;;;;;;;33.16;41.39;101270.78;5028415;28;20175;-85
2022/07/04 09:02:20;;;;;;;41.95;29.40;;;;;;;33.37;40.67;101264.38;5025980;28;21761;-86
2022/07/04 09:04:46;;;;;;;40.53;30.33;;;;;;;33.50;40.41;101258.16;5012372;28;20064;-87
2022/07/04 09:07:12;;;;;;;41.00;30.45;;;;;;;33.57;40.51;101261.63;5014534;28;20475;-85
2022/07/04 09:09:38;;;;;;;42.15;30.63;;;;;;;33.70;40.26;101258.91;5032196;28;20470;-91
2022/07/04 09:12:04;;;;;;;42.25;31.88;;;;;;;33.81;39.70;101268.97;5014390;28;20036;-89
2022/07/04 09:14:30;;;;;;;37.25;29.50;;;;;;;33.32;40.60;101238.13;5023536;28;20438;-88
2022/07/04 09:16:56;;;;;;;36.13;28.45;;;;;;;33.53;40.34;101257.72;5015184;28;20134;-91
2022/07/04 09:19:21;;;;;;;35.70;28.08;;;;;;;33.33;40.53;101244.31;5015974;28;20037;-88
2022/07/04 09:21:48;;;;;;;42.08;28.40;;;;;;;33.34;41.30;101249.50;5019429;28;20072;-90
2022/07/04 09:24:13;;;;;;;38.00;28.90;;;;;;;33.06;41.16;101243.56;5032129;28;20175;-89
2022/07/04 09:26:46;;;;;;;37.97;27.38;;;;;;;32.92;40.50;101248.09;5015101;28;20550;-87
2022/07/04 09:29:11;;;;;;;34.17;26.95;;;;;;;33.05;40.74;101241.94;5031326;28;20028;-90
2022/07/04 09:31:37;;;;;;;37.00;26.90;;;;;;;33.41;40.18;101243.31;5014303;28;20390;-84
2022/07/04 09:34:04;;;;;;;36.95;27.27;;;;;;;33.34;39.67;101230.72;5030634;28;20029;-84
2022/07/04 09:36:31;;;;;;;40.17;28.63;;;;;;;33.64;40.03;101241.00;5014350;28;20083;-89
2022/07/04 09:39:18;;;;;;;38.00;29.10;;;;;;;33.88;40.32;101242.97;5015246;28;20080;-90
2022/07/04 09:42:02;;;;;;;36.90;28.20;;;;;;;33.83;39.35;101248.13;5030633;28;20431;-92
2022/07/04 09:44:34;;;;;;;44.55;31.50;;;;;;;33.82;39.44;101232.22;5023599;28;20032;-92
2022/07/04 09:47:00;;;;;;;39.75;29.67;;;;;;;33.97;39.33;101238.19;5031774;28;20045;-88
2022/07/04 09:49:25;;;;;;;36.22;29.40;;;;;;;33.99;39.17;101237.97;5013319;28;20017;-83
2022/07/04 09:51:52;;;;;;;46.65;34.58;;;;;;;34.01;40.09;101235.88;5013105;28;20494;-83
2022/07/04 09:54:22;;;;;;;43.25;31.13;;;;;;;34.30;39.30;101235.28;4996315;28;20478;-86
2022/07/04 09:56:50;;;;;;;38.20;30.20;;;;;;;33.80;40.08;101213.66;5037185;28;20021;-84
2022/07/04 09:59:15;;;;;;;42.35;28.70;;;;;;;33.77;39.92;101211.41;5031471;28;20057;-88
2022/07/04 10:01:41;;;;;;;36.42;27.77;;;;;;;33.68;39.20;101226.09;5031564;28;20056;-83
2022/07/04 10:04:07;;;;;;;39.50;28.98;;;;;;;33.61;39.98;101219.94;5013956;28;20033;-83
2022/07/04 10:06:33;;;;;;;34.20;27.05;;;;;;;33.78;39.25;101220.28;5013318;28;20026;-84
2022/07/04 10:09:15;;;;;;;39.22;28.05;;;;;;;33.70;38.77;101196.38;5014329;28;20095;-82
2022/07/04 10:11:41;;;;;;;39.55;27.52;;;;;;;33.93;39.29;101223.56;5032067;28;20056;-83
2022/07/04 10:14:08;;;;;;;35.95;28.30;;;;;;;34.20;38.03;101213.47;5030971;28;20029;-83
2022/07/04 10:16:34;;;;;;;34.85;27.90;;;;;;;34.41;37.54;101213.13;5014313;28;20025;-87
2022/07/04 10:19:00;;;;;;;33.42;27.95;;;;;;;34.59;38.10;101223.13;5014310;28;20026;-85
2022/07/04 10:21:26;;;;;;;44.45;28.27;;;;;;;34.63;37.16;101197.47;4997432;28;20029;-87
2022/07/04 10:23:51;;;;;;;32.88;26.13;;;;;;;34.92;36.85;101206.75;5030028;28;20030;-88
2022/07/04 10:26:20;;;;;;;37.58;27.95;;;;;;;34.76;36.77;101212.66;5014187;28;20029;-89
2022/07/04 10:28:47;;;;;;;38.50;27.95;;;;;;;34.92;36.12;101198.69;4997935;28;20127;-88
2022/07/04 10:31:13;;;;;;;37.78;27.08;;;;;;;35.21;35.67;101199.03;5014488;28;20040;-88
2022/07/04 10:33:38;;;;;;;33.22;27.67;;;;;;;34.97;36.20;101187.25;5014665;28;20025;-85
2022/07/04 10:36:13;;;;;;;38.40;28.33;;;;;;;35.01;35.34;101172.34;5009778;28;20033;-89
2022/07/04 10:38:48;;;;;;;41.72;28.90;;;;;;;34.78;36.46;101167.56;5038545;28;20395;-85
2022/07/04 10:41:14;;;;;;;42.05;28.38;;;;;;;35.28;35.58;101183.59;5025190;28;20115;-94
2022/07/04 10:44:13;;;;;;;37.28;27.38;;;;;;;35.75;33.90;101183.88;5004492;28;20037;-87
2022/07/04 10:46:49;;;;;;;39.08;25.90;;;;;;;36.18;33.06;101179.13;5020886;28;20042;-88
2022/07/04 10:49:15;;;;;;;36.85;25.83;;;;;;;36.46;31.18;101180.38;5040458;28;20513;-95
2022/07/04 10:52:00;;;;;;;44.92;26.27;;;;;;;36.45;31.29;101174.16;5025299;28;20029;-92
2022/07/04 10:54:32;;;;;;;30.98;24.80;;;;;;;36.65;31.19;101163.03;5026960;28;20120;-91
2022/07/04 10:57:20;;;;;;;34.45;26.42;;;;;;;36.10;33.80;101149.88;5026612;28;21150;-89
2022/07/04 10:59:59;;;;;;;34.50;26.98;;;;;;;36.23;33.75;101158.78;5002660;28;20422;-90
2022/07/04 11:02:29;;;;;;;32.00;26.55;;;;;;;36.16;33.93;101143.53;5024150;28;20047;-87
2022/07/04 11:05:03;;;;;;;39.45;27.65;;;;;;;36.37;34.00;101139.47;5028641;28;20021;-86
2022/07/04 11:07:35;;;;;;;34.40;25.45;;;;;;;36.55;32.89;101143.94;5030411;28;20065;-86
2022/07/04 11:10:13;;;;;;;30.17;26.10;;;;;;;36.40;33.66;101144.44;5029431;28;20029;-90
2022/07/04 11:12:54;;;;;;;30.27;24.75;;;;;;;36.34;32.96;101150.69;5026698;28;20040;-88
2022/07/04 11:15:28;;;;;;;30.80;26.30;;;;;;;36.75;32.27;101147.09;5026647;28;20025;-85
2022/07/04 11:17:57;;;;;;;31.17;24.38;;;;;;;36.69;30.54;101117.59;5025624;28;20494;-84
2022/07/04 11:20:24;;;;;;;31.27;24.75;;;;;;;36.60;31.26;101121.69;5021902;28;20144;-89
2022/07/04 11:22:49;;;;;;;37.13;23.92;;;;;;;36.63;31.83;101132.81;5002477;28;20090;-84
2022/07/04 11:25:15;;;;;;;30.30;23.27;;;;;;;36.60;31.27;101122.53;5037528;28;20288;-89
2022/07/04 11:27:40;;;;;;;29.88;22.80;;;;;;;36.34;30.73;101129.16;5023448;28;20025;-89
2022/07/04 11:30:07;;;;;;;35.15;23.05;;;;;;;36.44;30.93;101123.22;5007776;28;20495;-86
2022/07/04 11:32:33;;;;;;;28.33;23.40;;;;;;;36.49;30.84;101115.25;5014591;28;20026;-86
2022/07/04 11:34:59;;;;;;;29.13;23.02;;;;;;;36.71;30.83;101118.19;5038920;28;20441;-86
2022/07/04 11:37:25;;;;;;;33.83;25.25;;;;;;;36.86;30.09;101101.53;5021881;28;21712;-86
2022/07/04 11:45:38;;;;;;;28.25;22.77;;;;;;;36.59;31.05;101110.09;4997511;28;20026;-86
2022/07/04 11:48:04;;;;;;;27.55;24.48;;;;;;;36.52;30.95;101109.41;5012341;28;20088;-86
2022/07/04 11:50:30;;;;;;;29.83;23.67;;;;;;;36.46;30.74;101092.28;5027403;28;20084;-88
2022/07/04 11:52:56;;;;;;;30.80;24.05;;;;;;;36.26;31.00;101061.34;5024555;28;20037;-87
2022/07/04 11:55:21;;;;;;;31.02;23.80;;;;;;;36.20;31.18;101080.09;5025167;28;20148;-86
2022/07/04 11:57:48;;;;;;;33.45;23.90;;;;;;;36.45;31.44;101087.13;4974862;28;20101;-85
2022/07/04 12:00:15;;;;;;;27.92;24.23;;;;;;;36.44;31.59;101078.22;4982671;28;20033;-90
2022/07/04 12:02:41;;;;;;;29.42;24.38;;;;;;;36.68;31.17;101091.69;4967378;28;20034;-88
2022/07/04 12:05:08;;;;;;;34.80;25.10;;;;;;;36.41;31.49;101084.09;4968638;28;20117;-89
2022/07/04 12:07:35;;;;;;;31.38;24.80;;;;;;;36.31;31.41;101078.44;4967190;28;20094;-86
2022/07/04 12:10:15;;;;;;;29.65;23.45;;;;;;;36.84;30.69;101090.16;4958099;28;20049;-89
2022/07/04 12:13:15;;;;;;;32.80;23.75;;;;;;;36.82;31.21;101081.47;4967084;28;20034;-89
2022/07/04 12:15:44;;;;;;;29.92;24.08;;;;;;;36.71;30.70;101054.31;4964746;28;20084;-90
2022/07/04 12:18:31;;;;;;;29.17;24.33;;;;;;;36.90;30.48;101067.66;4985323;28;20041;-89
2022/07/04 12:21:15;;;;;;;30.75;24.67;;;;;;;36.79;31.36;101063.09;4954393;28;20934;-85
2022/07/04 12:23:41;;;;;;;30.38;23.83;;;;;;;37.03;30.41;101062.78;4966650;28;20081;-93
2022/07/04 12:26:09;;;;;;;31.88;23.55;;;;;;;37.13;30.48;101062.19;4984628;28;20562;-91
2022/07/04 12:28:36;;;;;;;30.75;25.02;;;;;;;36.90;30.58;101048.78;4968696;28;20543;-83
2022/07/04 12:31:01;;;;;;;32.08;23.77;;;;;;;37.08;30.46;101048.59;4966591;28;20046;-89
2022/07/04 12:33:28;;;;;;;34.53;24.17;;;;;;;36.81;30.39;101059.09;4970546;28;20033;-91
2022/07/04 12:36:03;;;;;;;34.40;24.77;;;;;;;36.47;31.10;101047.28;4973519;28;20031;-85
2022/07/04 12:38:29;;;;;;;34.33;24.35;;;;;;;36.71;30.80;101050.78;4984026;28;20030;-93
2022/07/04 12:40:58;;;;;;;30.55;24.30;;;;;;;37.06;30.78;101050.69;4986834;28;20022;-91
2022/07/04 12:43:54;;;;;;;32.90;24.60;;;;;;;37.25;30.53;101057.53;4986501;28;20492;-91
2022/07/04 12:46:27;;;;;;;28.55;23.73;;;;;;;37.27;30.35;101041.97;4987604;28;20411;-92
2022/07/04 12:48:53;;;;;;;38.83;24.23;;;;;;;37.44;30.32;101060.91;4985041;28;20026;-90
2022/07/04 12:51:29;;;;;;;32.85;24.30;;;;;;;37.49;30.24;101057.50;4972694;28;20042;-92
2022/07/04 12:53:56;;;;;;;29.02;23.98;;;;;;;37.60;30.23;101059.28;4986776;28;20030;-92
2022/07/04 12:56:32;;;;;;;33.70;25.98;;;;;;;37.62;30.74;101049.06;4972022;28;20550;-87
2022/07/04 12:59:03;;;;;;;28.60;23.98;;;;;;;37.76;31.04;101044.19;4972775;28;20050;-94
2022/07/04 13:01:28;;;;;;;30.92;24.48;;;;;;;37.58;30.18;101020.94;4970940;28;20036;-88
2022/07/04 13:03:54;;;;;;;32.78;24.08;;;;;;;37.58;30.91;101037.94;5004174;28;20042;-94
2022/07/04 13:06:20;;;;;;;30.75;24.70;;;;;;;37.71;30.88;101031.41;4990381;28;20027;-87
2022/07/04 13:08:46;;;;;;;31.83;25.00;;;;;;;37.57;30.93;101019.31;4986258;28;20045;-92
2022/07/04 13:13:56;;;;;;;29.88;24.25;;;;;;;37.37;31.13;101035.97;4975977;28;20037;-94
2022/07/04 13:16:22;;;;;;;30.63;24.17;;;;;;;37.25;31.03;101027.88;4959054;28;20042;-95
2022/07/04 13:18:48;;;;;;;28.75;23.17;;;;;;;37.04;31.41;101009.69;4990978;28;20480;-89
2022/07/04 13:21:13;;;;;;;32.05;24.58;;;;;;;36.95;31.96;101013.81;4950338;28;20063;-90
2022/07/04 13:23:39;;;;;;;38.63;24.77;;;;;;;36.93;31.68;101024.03;4991232;28;20042;-89
2022/07/04 13:26:04;;;;;;;36.00;24.92;;;;;;;36.73;32.12;101009.06;4992309;28;20030;-89
2022/07/04 13:28:30;;;;;;;30.85;24.10;;;;;;;36.81;31.73;101010.56;4987868;28;20115;-86
2022/07/04 13:30:55;;;;;;;28.17;24.02;;;;;;;36.69;31.99;101001.69;4985289;28;20404;-88
2022/07/04 13:33:21;;;;;;;28.48;22.98;;;;;;;36.53;31.38;100987.06;4967233;28;20042;-90
2022/07/04 13:35:46;;;;;;;29.92;23.25;;;;;;;36.49;30.84;100999.41;4983794;28;20250;-89
2022/07/04 13:38:14;;;;;;;26.70;22.63;;;;;;;36.33;31.56;100994.69;4986310;28;20448;-86
2022/07/04 13:40:41;;;;;;;29.35;21.98;;;;;;;36.29;30.44;101002.44;4986457;28;20034;-89
2022/07/04 13:43:09;;;;;;;31.77;22.27;;;;;;;36.25;30.54;100993.19;4985659;28;20100;-90
2022/07/04 13:45:35;;;;;;;34.63;22.23;;;;;;;36.26;31.01;100985.91;4969780;28;20033;-87
2022/07/04 13:48:01;;;;;;;26.80;21.15;;;;;;;36.19;30.25;100981.50;4984924;28;20635;-88
2022/07/04 13:50:26;;;;;;;28.67;21.85;;;;;;;36.06;29.61;100981.72;4971517;28;20062;-85
2022/07/04 13:52:52;;;;;;;31.45;21.70;;;;;;;36.10;30.03;100987.47;4993332;28;20090;-93
2022/07/04 13:55:18;;;;;;;30.40;21.20;;;;;;;36.15;30.00;100985.69;4977581;28;20053;-91
2022/07/04 13:57:43;;;;;;;28.73;21.73;;;;;;;36.14;29.70;100978.66;4948686;28;20058;-88
2022/07/04 14:00:09;;;;;;;26.20;21.73;;;;;;;36.12;29.81;100970.00;4974239;28;20034;-89
2022/07/04 14:02:35;;;;;;;31.02;21.02;;;;;;;35.97;30.14;100960.75;4968585;28;20853;-84
2022/07/04 14:05:00;;;;;;;27.35;22.25;;;;;;;36.04;29.92;100967.66;4968369;28;20081;-95
2022/07/04 14:07:26;;;;;;;32.80;20.92;;;;;;;35.92;29.91;100954.22;4985403;28;20113;-89
2022/07/04 14:09:51;;;;;;;33.42;22.75;;;;;;;35.90;30.26;100944.75;4984206;28;20129;-89
2022/07/04 14:12:17;;;;;;;31.02;22.02;;;;;;;35.81;29.99;100946.13;4983941;28;20427;-85
2022/07/04 14:14:43;;;;;;;36.63;22.40;;;;;;;35.87;30.51;100950.56;4968157;28;20148;-88
2022/07/04 14:17:08;;;;;;;29.23;21.95;;;;;;;35.80;29.46;100944.47;4975864;28;20034;-87
2022/07/04 14:19:34;;;;;;;29.40;21.33;;;;;;;35.73;29.89;100949.16;4977279;28;20134;-92
2022/07/04 14:21:59;;;;;;;26.20;21.75;;;;;;;35.66;29.47;100948.44;4960971;28;20058;-87
2022/07/04 14:24:25;;;;;;;30.95;21.38;;;;;;;35.70;29.89;100955.00;4976870;28;20099;-88
2022/07/04 14:26:52;;;;;;;29.42;21.10;;;;;;;35.51;29.46;100940.84;4959692;28;20125;-86
2022/07/04 14:29:17;;;;;;;28.70;21.30;;;;;;;35.51;28.87;100947.03;4983200;28;20120;-85
2022/07/04 14:31:43;;;;;;;27.50;21.92;;;;;;;35.44;29.51;100967.00;4989077;28;20026;-86
2022/07/04 14:34:11;;;;;;;28.08;20.75;;;;;;;35.18;29.11;100931.34;4983814;28;20031;-87
2022/07/04 14:36:41;;;;;;;28.10;20.90;;;;;;;35.40;29.69;100968.50;4988251;28;20062;-85
2022/07/04 14:39:06;;;;;;;32.58;21.83;;;;;;;35.35;30.39;100966.50;4968911;28;20097;-92
2022/07/04 14:41:32;;;;;;;29.85;22.50;;;;;;;35.37;31.02;100961.69;4973423;28;20482;-87
2022/07/04 14:43:57;;;;;;;27.23;21.67;;;;;;;35.27;30.30;100951.50;4987879;28;20481;-88
2022/07/04 14:46:23;;;;;;;24.38;20.65;;;;;;;35.12;29.85;100947.59;4972661;28;20054;-84
2022/07/04 14:48:49;;;;;;;30.33;21.75;;;;;;;35.03;30.01;100929.09;4972800;28;20650;-85
2022/07/04 14:51:14;;;;;;;24.52;21.05;;;;;;;35.16;30.54;100951.47;4988430;28;20039;-85
2022/07/04 14:53:40;;;;;;;30.65;21.42;;;;;;;35.02;31.09;100937.41;4972049;28;20034;-86
2022/07/04 14:56:05;;;;;;;28.55;21.42;;;;;;;35.06;30.68;100947.47;4966299;28;20065;-90
2022/07/04 14:58:31;;;;;;;29.42;21.65;;;;;;;35.04;31.46;100954.94;4950303;28;20070;-84
2022/07/04 15:00:56;;;;;;;28.00;21.77;;;;;;;35.03;32.03;100942.56;4970006;28;20031;-89
2022/07/04 15:03:22;;;;;;;31.02;21.55;;;;;;;34.92;31.38;100951.41;4952618;28;20189;-89
2022/07/04 15:05:48;;;;;;;30.23;21.70;;;;;;;34.79;30.65;100940.78;4969044;28;20469;-88
2022/07/04 15:08:13;;;;;;;27.70;21.42;;;;;;;34.79;31.38;100944.28;4987292;28;20034;-88
2022/07/04 15:10:39;;;;;;;29.42;20.60;;;;;;;34.70;32.03;100952.88;4970771;28;20027;-89
2022/07/04 15:13:05;;;;;;;27.88;22.02;;;;;;;34.54;31.94;100934.72;4987443;28;20077;-88
2022/07/04 15:15:30;;;;;;;32.88;22.05;;;;;;;34.39;32.73;100933.22;4971564;28;20061;-89
2022/07/04 15:17:56;;;;;;;29.08;22.10;;;;;;;34.39;33.23;100937.75;4971545;28;20030;-89
2022/07/04 15:25:49;;;;;;;26.25;21.23;;;;;;;34.26;32.90;100968.25;4970866;28;20096;-88
2022/07/04 15:28:14;;;;;;;53.10;35.03;;;;;;;34.26;33.12;100968.25;4971395;28;20031;-89
2022/07/04 15:30:40;;;;;;;31.85;23.67;;;;;;;34.22;33.58;100948.25;4986348;28;20101;-89
2022/07/04 15:33:06;;;;;;;41.40;22.73;;;;;;;34.18;33.22;100939.00;4955344;28;20590;-88
2022/07/04 15:35:31;;;;;;;34.45;21.60;;;;;;;34.17;33.06;100946.22;4987499;28;20054;-88
2022/07/04 15:37:57;;;;;;;33.38;21.92;;;;;;;34.27;33.44;100969.06;4987520;28;20101;-88
2022/07/04 15:40:22;;;;;;;35.72;21.90;;;;;;;34.11;33.78;100951.66;4971832;28;20503;-89
2022/07/04 15:42:48;;;;;;;31.35;21.45;;;;;;;33.99;33.97;100945.38;4955210;28;20113;-89
2022/07/04 15:45:13;;;;;;;31.50;21.60;;;;;;;34.13;33.93;100982.63;4971178;28;20027;-89
2022/07/04 15:47:39;;;;;;;38.85;22.60;;;;;;;34.19;33.93;100978.22;4954895;28;20074;-88
2022/07/04 15:50:06;;;;;;;36.63;23.67;;;;;;;34.08;34.41;100970.91;4970872;28;20105;-89
2022/07/04 15:52:31;;;;;;;31.17;22.83;;;;;;;34.08;34.24;100960.97;4970831;28;20034;-89